YAMB weather

RAAF Base Amberley
Queensland, Australia

Public forecast

Using degrees Celsius for public forecast. Weather courtesy of forecast.io.

METAR (pilot weather report)

Retrieved 2019/04/20 11:30 UTC (20 minutes ago):

YAMB 201130Z AUTO 00000KT 9999 -RA SCT024 BKN058 BKN073 20/19 Q1022 RERA

TAF (pilot weather forecast)

Retrieved 2019/04/20 06:00 UTC (6 hours ago):

TAF YAMB 200458Z 2006/2024 12014KT 9999 -SHRA SCT025 BKN045 FM201000 14007KT 9999 -SHRA SCT015 BKN045 INTER 2006/2018 VRB15G25KT 3000 -SHRA BKN015